KDAG/DAG METAR and TAF weather

Enter ICAO airport designator
Station Type Date Time Source
KDAG METAR 2021/04/13 21:50 UTC NOAA

KDAG 132150Z AUTO 27031G44KT 10SM CLR 28/M04 A2964 RMK AO2 PK WND 27044/2150 PRESFR SLP013 T02781044


Station Type Date Time Source
KDAG Decoded METAR 2021/04/13 21:50 UTC NOAA

BARSTOW-DAGGETT AIRPORT, CA, United States (KDAG) 34-51N 116-47W 587M
Apr 13, 2021 - 05:50 PM EDT / 2021.04.13 2150 UTC
Wind: from the W (270 degrees) at 36 MPH (31 KT) gusting to 51 MPH (44 KT):0
Visibility: 10 mile(s):0
Sky conditions: clear
Temperature: 82.0 F (27.8 C)
Dew Point: 24.1 F (-4.4 C)
Relative Humidity: 11%
Pressure (altimeter): 29.64 in. Hg (1003 hPa)
Pressure tendency: falling rapidly
ob: KDAG 132150Z AUTO 27031G44KT 10SM CLR 28/M04 A2964 RMK AO2 PK WND 27044/2150 PRESFR SLP013 T02781044
cycle: 22

Station Type Date Time Source
KDAG TAF 2021/04/13 18:22 UTC NOAA

TAF KDAG 131720Z 1318/1418 25025G35KT P6SM SKC
FM132200 26032G42KT 6SM BLDU SKC
FM141100 26022G32KT P6SM SKC

Example: see airport list